Terminal Aerodrome Forecast
Issued by NWS South Bend, IN

Home | Current Version | Previous Version | Text Only | Print | Product List | Glossary On
Versions: 1 2 3 4 5 6 7 8 9 10 11 12 13 14
000
FTUS43 KIWX 252300
TAFSBN
TAF
KSBN 252325Z 2600/2624 08012G19KT P6SM -RA BKN080
     FM260100 05008KT P6SM SCT100 BKN200
     FM261400 01012KT P6SM FEW040
     FM261700 35014G20KT P6SM SCT040=

USA.gov is the U.S. government's official web portal to all federal, state and local government web resources and services.